createdAt,value
2018-02-05T06:21:12.196Z,-1.40
2018-02-05T06:23:44.855Z,-1.40
2018-02-05T06:26:16.740Z,-1.40
2018-02-05T06:28:49.638Z,-1.40
2018-02-05T06:31:21.520Z,-1.50
2018-02-05T06:33:53.417Z,-1.40
2018-02-05T06:36:25.296Z,-1.40
2018-02-05T06:38:57.996Z,-1.40
2018-02-05T06:41:30.659Z,-1.50
2018-02-05T06:44:03.315Z,-1.50
2018-02-05T06:46:35.193Z,-1.50
2018-02-05T06:49:07.386Z,-1.50
2018-02-05T06:51:51.039Z,-1.50
2018-02-05T06:54:34.716Z,-1.50
2018-02-05T06:57:06.591Z,-1.40
2018-02-05T06:59:39.243Z,-1.40
2018-02-05T07:02:11.118Z,-1.50
2018-02-05T07:04:43.318Z,-1.50
2018-02-05T07:07:15.206Z,-1.50
2018-02-05T07:09:47.090Z,-1.50
2018-02-05T07:12:18.966Z,-1.50
2018-02-05T07:14:50.886Z,-1.50
2018-02-05T07:17:22.767Z,-1.50
2018-02-05T07:19:54.699Z,-1.50
2018-02-05T07:22:26.572Z,-1.40
2018-02-05T07:24:58.519Z,-1.40
2018-02-05T07:27:30.386Z,-1.40
2018-02-05T07:30:02.279Z,-1.40
2018-02-05T07:32:34.383Z,-1.40
2018-02-05T07:35:06.290Z,-1.30
2018-02-05T07:37:38.164Z,-1.30
2018-02-05T07:40:10.061Z,-1.30
2018-02-05T07:42:42.727Z,-1.20
2018-02-05T07:45:15.371Z,-1.20
2018-02-05T07:47:47.247Z,-1.20
2018-02-05T07:50:19.148Z,-1.10
2018-02-05T07:52:51.019Z,-1.10
2018-02-05T07:55:23.166Z,-1.10
2018-02-05T07:57:55.067Z,-1.00
2018-02-05T08:00:26.949Z,-1.00
2018-02-05T08:02:59.055Z,-1.00
2018-02-05T08:05:31.938Z,-0.90
2018-02-05T08:08:03.806Z,-0.90
2018-02-05T08:10:35.963Z,-0.90
2018-02-05T08:13:08.135Z,-0.80
2018-02-05T08:15:40.014Z,-0.80
2018-02-05T08:18:11.887Z,-0.80
2018-02-05T08:20:43.808Z,-0.70
2018-02-05T08:23:16.442Z,-0.70
2018-02-05T08:25:48.340Z,-0.70
2018-02-05T08:28:20.975Z,-0.60
2018-02-05T08:30:52.861Z,-0.60
2018-02-05T08:33:24.854Z,-0.50
2018-02-05T08:35:57.496Z,-0.40
2018-02-05T08:38:29.371Z,-0.40
2018-02-05T08:41:02.018Z,-0.30
2018-02-05T08:43:33.903Z,-0.30
2018-02-05T08:46:06.562Z,-0.20
2018-02-05T08:48:38.439Z,-0.30
2018-02-05T08:51:11.103Z,-0.20
2018-02-05T08:53:43.207Z,-0.20
2018-02-05T08:56:15.092Z,-0.10
2018-02-05T08:58:46.991Z,-0.10
2018-02-05T09:01:18.877Z,0.00
2018-02-05T09:03:51.516Z,0.10
2018-02-05T09:06:23.401Z,0.10
2018-02-05T09:08:55.258Z,0.10
2018-02-05T09:11:27.140Z,0.20
2018-02-05T09:13:59.773Z,0.30
2018-02-05T09:16:31.661Z,0.30
2018-02-05T09:19:04.295Z,0.30
2018-02-05T09:21:36.187Z,0.30
2018-02-05T09:24:08.051Z,0.40
2018-02-05T09:26:39.931Z,0.40
2018-02-05T09:29:12.562Z,0.50
2018-02-05T09:31:44.450Z,0.50
2018-02-05T09:34:17.095Z,0.60
2018-02-05T09:36:48.975Z,0.60
2018-02-05T09:39:20.845Z,0.70
2018-02-05T09:41:52.744Z,0.70
2018-02-05T09:44:24.631Z,0.80
2018-02-05T09:46:56.540Z,0.80
2018-02-05T09:49:29.177Z,0.90
2018-02-05T09:52:01.060Z,0.90
2018-02-05T09:54:32.955Z,1.00
2018-02-05T09:57:04.844Z,1.00
2018-02-05T09:59:36.716Z,1.10
2018-02-05T10:02:08.606Z,1.10
2018-02-05T10:04:40.708Z,1.20
2018-02-05T10:07:12.582Z,1.20
2018-02-05T10:09:44.495Z,1.30
2018-02-05T10:12:16.377Z,1.30
2018-02-05T10:14:49.027Z,1.40
2018-02-05T10:17:20.901Z,1.40
2018-02-05T10:19:53.535Z,1.50
2018-02-05T10:22:25.423Z,1.50
2018-02-05T10:24:57.314Z,1.50
2018-02-05T10:27:29.199Z,1.50
2018-02-05T10:30:01.069Z,1.60
2018-02-05T10:32:33.051Z,1.70
2018-02-05T10:35:04.931Z,1.70
2018-02-05T10:37:37.127Z,1.70
2018-02-05T10:40:08.994Z,1.80
2018-02-05T10:42:40.896Z,1.80
2018-02-05T10:45:12.771Z,1.80
2018-02-05T10:47:44.975Z,1.90
2018-02-05T10:50:16.834Z,1.90
2018-02-05T10:52:48.733Z,1.90
2018-02-05T10:55:20.598Z,2.00
2018-02-05T10:57:52.470Z,2.10
2018-02-05T11:00:24.335Z,2.10
2018-02-05T11:02:56.241Z,2.20
2018-02-05T11:05:28.135Z,2.20
2018-02-05T11:08:00.010Z,2.30
2018-02-05T11:10:31.890Z,2.30
2018-02-05T11:13:03.772Z,2.40
2018-02-05T11:15:36.407Z,2.50
2018-02-05T11:18:08.287Z,2.40
2018-02-05T11:20:40.151Z,2.50
2018-02-05T11:23:12.795Z,2.60
2018-02-05T11:25:44.659Z,2.60
2018-02-05T11:28:16.551Z,2.70
2018-02-05T11:30:49.198Z,2.90
2018-02-05T11:33:21.109Z,2.80
2018-02-05T11:35:53.740Z,2.90
2018-02-05T11:38:25.632Z,2.90
2018-02-05T11:40:57.613Z,2.90
2018-02-05T11:43:30.251Z,3.00
2018-02-05T11:46:02.138Z,3.00
2018-02-05T11:48:35.030Z,3.00
2018-02-05T11:51:06.902Z,3.00
2018-02-05T11:53:38.796Z,3.00
2018-02-05T11:56:10.659Z,3.10
2018-02-05T11:58:42.542Z,3.10
2018-02-05T12:01:14.407Z,3.10
2018-02-05T12:03:46.291Z,3.20
2018-02-05T12:06:18.160Z,3.20
2018-02-05T12:08:50.062Z,3.20
2018-02-05T12:11:21.935Z,3.20
2018-02-05T12:13:53.838Z,3.30
2018-02-05T12:16:25.996Z,3.30
2018-02-05T12:18:57.907Z,3.30
2018-02-05T12:21:29.781Z,3.30
2018-02-05T12:24:01.698Z,3.30
2018-02-05T12:26:33.636Z,3.30
2018-02-05T12:29:06.524Z,3.40
2018-02-05T12:31:38.690Z,3.30
2018-02-05T12:34:10.574Z,3.40
2018-02-05T12:36:42.454Z,3.40
2018-02-05T12:39:14.343Z,3.40
2018-02-05T12:41:46.223Z,3.50
2018-02-05T12:44:18.867Z,3.50
2018-02-05T12:46:50.759Z,3.50
2018-02-05T12:49:23.395Z,3.60
2018-02-05T12:51:55.621Z,3.60
2018-02-05T12:54:27.490Z,3.60
2018-02-05T12:56:59.373Z,3.60
2018-02-05T12:59:31.255Z,3.60
2018-02-05T13:02:03.152Z,3.60
2018-02-05T13:04:35.785Z,3.60
2018-02-05T13:07:07.715Z,3.60
2018-02-05T13:09:39.583Z,3.60
2018-02-05T13:12:11.462Z,3.60
2018-02-05T13:14:43.355Z,3.60
2018-02-05T13:17:15.218Z,3.60
2018-02-05T13:19:47.846Z,3.70
2018-02-05T13:22:19.735Z,3.70
2018-02-05T13:24:51.602Z,3.70
2018-02-05T13:27:23.534Z,3.70
2018-02-05T13:29:55.397Z,3.80
2018-02-05T13:32:27.271Z,3.80
2018-02-05T13:34:59.142Z,3.80
2018-02-05T13:37:31.067Z,3.90
2018-02-05T13:40:02.932Z,3.90
2018-02-05T13:42:34.814Z,3.90
2018-02-05T13:45:06.684Z,3.80
2018-02-05T13:47:38.606Z,3.80
2018-02-05T13:50:10.472Z,3.80
2018-02-05T13:52:42.542Z,3.80
2018-02-05T13:55:14.411Z,3.80
2018-02-05T13:57:46.292Z,3.90
2018-02-05T14:00:18.178Z,3.90
2018-02-05T14:02:50.823Z,4.00
2018-02-05T14:05:22.927Z,3.90
2018-02-05T14:07:54.807Z,4.00
2018-02-05T14:10:26.669Z,4.00
2018-02-05T14:12:58.554Z,4.00
2018-02-05T14:15:30.434Z,4.00
2018-02-05T14:18:02.311Z,4.00
2018-02-05T14:20:34.942Z,4.00
2018-02-05T14:23:06.816Z,4.00
2018-02-05T14:25:39.027Z,4.00
2018-02-05T14:28:10.988Z,4.00
2018-02-05T14:30:43.606Z,4.00
2018-02-05T14:33:15.487Z,3.90
2018-02-05T14:35:47.353Z,4.00
2018-02-05T14:38:19.232Z,4.00
2018-02-05T14:40:51.858Z,4.00
2018-02-05T14:43:23.738Z,4.00
2018-02-05T14:45:55.594Z,4.00
2018-02-05T14:48:27.491Z,4.00
2018-02-05T14:51:00.124Z,4.00
2018-02-05T14:53:32.011Z,4.00
2018-02-05T14:56:03.878Z,4.00
2018-02-05T14:58:35.749Z,4.00
2018-02-05T15:01:08.383Z,4.00
2018-02-05T15:03:40.267Z,3.90
2018-02-05T15:06:12.134Z,3.90
2018-02-05T15:08:44.018Z,3.90
2018-02-05T15:11:15.887Z,3.90
2018-02-05T15:13:47.771Z,3.90
2018-02-05T15:16:19.675Z,3.80
2018-02-05T15:18:51.546Z,3.80
2018-02-05T15:21:24.183Z,3.80
2018-02-05T15:23:56.302Z,3.70
2018-02-05T15:26:28.178Z,3.70
2018-02-05T15:29:00.069Z,3.70
2018-02-05T15:31:31.932Z,3.70
2018-02-05T15:34:03.812Z,3.70
2018-02-05T15:36:35.683Z,3.70
2018-02-05T15:39:08.338Z,3.60
2018-02-05T15:41:40.239Z,3.60
2018-02-05T15:44:12.884Z,3.60
2018-02-05T15:46:44.758Z,3.60
2018-02-05T15:49:17.399Z,3.50
2018-02-05T15:51:49.259Z,3.50
2018-02-05T15:54:21.142Z,3.40
2018-02-05T15:56:53.014Z,3.40
2018-02-05T15:59:25.654Z,3.30
2018-02-05T16:01:57.522Z,3.30
2018-02-05T16:04:29.408Z,3.30
2018-02-05T16:07:01.600Z,3.20
2018-02-05T16:09:33.488Z,3.20
2018-02-05T16:12:05.358Z,3.10
2018-02-05T16:14:37.235Z,3.00
2018-02-05T16:17:09.110Z,3.00
2018-02-05T16:19:41.006Z,2.90
2018-02-05T16:22:12.875Z,2.80
2018-02-05T16:24:44.760Z,2.80
2018-02-05T16:27:16.635Z,2.70
2018-02-05T16:29:48.510Z,2.70
2018-02-05T16:32:20.395Z,2.60
2018-02-05T16:34:53.284Z,2.60
2018-02-05T16:37:26.283Z,2.50
2018-02-05T16:39:58.154Z,2.50
2018-02-05T16:42:30.022Z,2.40
2018-02-05T16:45:01.919Z,2.40
2018-02-05T16:47:33.786Z,2.30
2018-02-05T16:50:05.667Z,2.20
2018-02-05T16:52:38.556Z,2.20
2018-02-05T16:55:10.429Z,2.10
2018-02-05T16:57:43.091Z,2.10
2018-02-05T17:00:15.726Z,2.00
2018-02-05T17:02:47.831Z,2.00
2018-02-05T17:05:19.778Z,2.00
2018-02-05T17:07:52.423Z,1.90
2018-02-05T17:10:24.305Z,1.80
2018-02-05T17:12:56.174Z,1.80
2018-02-05T17:15:28.846Z,1.70
2018-02-05T17:18:00.722Z,1.70
2018-02-05T17:20:32.644Z,1.70
2018-02-05T17:23:04.514Z,1.60
2018-02-05T17:25:36.429Z,1.60
2018-02-05T17:28:08.507Z,1.60
2018-02-05T17:30:40.646Z,1.50
2018-02-05T17:33:12.506Z,1.50
2018-02-05T17:35:44.386Z,1.50
2018-02-05T17:38:16.259Z,1.40
2018-02-05T17:40:48.134Z,1.40
2018-02-05T17:43:19.998Z,1.40
2018-02-05T17:45:51.882Z,1.40
2018-02-05T17:48:24.786Z,1.30
2018-02-05T17:50:56.675Z,1.20
2018-02-05T17:53:28.549Z,1.20
2018-02-05T17:56:00.423Z,1.20
2018-02-05T17:58:32.294Z,1.10
2018-02-05T18:01:04.187Z,1.10
2018-02-05T18:03:36.055Z,1.10
2018-02-05T18:06:07.934Z,1.10
2018-02-05T18:08:39.802Z,1.00
2018-02-05T18:11:11.695Z,1.00
2018-02-05T18:13:43.558Z,1.00
2018-02-05T18:16:15.445Z,1.00
2018-02-05T18:18:48.330Z,0.90
2018-02-05T18:21:20.206Z,0.90
2018-02-05T18:23:52.075Z,0.80
2018-02-05T18:26:23.956Z,0.80
2018-02-05T18:28:56.587Z,0.80
2018-02-05T18:31:28.479Z,0.80
2018-02-05T18:34:00.350Z,0.80
2018-02-05T18:39:00.995Z,0.80
2018-02-05T18:41:32.875Z,0.70
2018-02-05T18:44:04.982Z,0.70
2018-02-05T18:46:36.871Z,0.70
2018-02-05T18:49:08.794Z,0.60
2018-02-05T18:51:40.710Z,0.60
2018-02-05T18:54:12.570Z,0.60
2018-02-05T18:56:44.463Z,0.60
2018-02-05T18:59:16.320Z,0.60
2018-02-05T19:02:00.964Z,0.50
2018-02-05T19:04:32.841Z,0.50
2018-02-05T19:07:05.506Z,0.50
2018-02-05T19:09:37.607Z,0.40
2018-02-05T19:12:09.495Z,0.40
2018-02-05T19:14:41.368Z,0.40
2018-02-05T19:17:13.303Z,0.40
2018-02-05T19:19:45.175Z,0.40
2018-02-05T19:22:17.315Z,0.40
2018-02-05T19:24:49.286Z,0.30
2018-02-05T19:27:21.162Z,0.30
2018-02-05T19:29:53.043Z,0.30
2018-02-05T19:32:24.933Z,0.20
2018-02-05T19:34:56.798Z,0.20
2018-02-05T19:37:29.505Z,0.10
2018-02-05T19:40:01.379Z,0.10
2018-02-05T19:42:33.267Z,0.10
2018-02-05T19:45:05.162Z,0.10
2018-02-05T19:47:37.819Z,0.00
2018-02-05T19:50:09.686Z,0.00
2018-02-05T19:52:41.606Z,0.00
2018-02-05T19:55:14.352Z,0.00
2018-02-05T19:57:47.006Z,-0.10
2018-02-05T20:00:19.199Z,-0.10
2018-02-05T20:02:51.091Z,-0.10
2018-02-05T20:05:22.970Z,-0.10
2018-02-05T20:07:54.859Z,-0.10
2018-02-05T20:10:27.771Z,-0.20
2018-02-05T20:12:59.870Z,-0.20
2018-02-05T20:15:31.742Z,-0.20
2018-02-05T20:18:03.959Z,-0.20
2018-02-05T20:20:36.123Z,-0.20
2018-02-05T20:23:08.011Z,-0.20
2018-02-05T20:25:39.887Z,-0.20
2018-02-05T20:28:11.778Z,-0.20
2018-02-05T20:30:43.656Z,-0.20
2018-02-05T20:33:16.302Z,-0.30
2018-02-05T20:35:48.203Z,-0.30
2018-02-05T20:38:20.090Z,-0.30
2018-02-05T20:40:51.976Z,-0.30
2018-02-05T20:43:23.863Z,-0.30
2018-02-05T20:45:56.500Z,-0.30
2018-02-05T20:48:28.386Z,-0.30
2018-02-05T20:51:00.253Z,-0.40
2018-02-05T20:53:32.448Z,-0.40
2018-02-05T20:56:04.318Z,-0.40
2018-02-05T20:58:36.209Z,-0.40
2018-02-05T21:01:08.085Z,-0.40
2018-02-05T21:03:39.972Z,-0.40
2018-02-05T21:06:12.607Z,-0.40
2018-02-05T21:08:44.502Z,-0.40
2018-02-05T21:11:17.146Z,-0.40
2018-02-05T21:13:49.038Z,-0.40
2018-02-05T21:16:20.907Z,-0.40
2018-02-05T21:18:53.809Z,-0.50
2018-02-05T21:21:25.683Z,-0.50
2018-02-05T21:23:57.578Z,-0.50
2018-02-05T21:26:29.455Z,-0.50
2018-02-05T21:29:01.406Z,-0.50
2018-02-05T21:31:33.233Z,-0.50
2018-02-05T21:34:05.118Z,-0.50
2018-02-05T21:36:37.003Z,-0.50
2018-02-05T21:39:08.917Z,-0.50
2018-02-05T21:41:40.791Z,-0.50
2018-02-05T21:44:12.679Z,-0.50
2018-02-05T21:46:44.546Z,-0.50
2018-02-05T21:49:17.198Z,-0.60
2018-02-05T21:51:49.075Z,-0.60
2018-02-05T21:54:20.971Z,-0.60
